createdAt,value
2022-08-07T08:15:43.585Z,25.4
2022-08-07T08:24:18.591Z,25.5
2022-08-07T08:32:55.443Z,25.5
2022-08-07T08:40:16.270Z,25.5
2022-08-07T08:47:28.174Z,25.5
2022-08-07T08:54:54.202Z,25.6
2022-08-07T09:02:00.540Z,25.6
2022-08-07T09:09:09.518Z,25.6
2022-08-07T09:17:58.740Z,25.6
2022-08-07T09:30:46.390Z,25.6
2022-08-07T09:38:50.046Z,25.6
2022-08-07T09:50:56.486Z,25.6
2022-08-07T09:58:51.164Z,25.7
2022-08-07T10:07:52.507Z,25.7
2022-08-07T10:17:01.584Z,25.7
2022-08-07T10:24:59.479Z,25.7
2022-08-07T10:31:28.155Z,25.7
2022-08-07T10:40:22.442Z,25.7
2022-08-07T10:48:51.788Z,25.7
2022-08-07T10:56:37.264Z,25.7
2022-08-07T11:04:16.857Z,25.7
2022-08-07T11:12:18.889Z,25.8
2022-08-07T11:20:47.796Z,25.8
2022-08-07T11:27:33.403Z,25.8
2022-08-07T11:35:25.248Z,25.8
2022-08-07T11:43:10.628Z,25.8
2022-08-07T11:52:54.120Z,25.8
2022-08-07T12:01:59.003Z,25.8
2022-08-07T12:10:18.638Z,25.8
2022-08-07T12:18:15.976Z,25.8
2022-08-07T12:29:09.354Z,25.9
2022-08-07T12:36:33.663Z,25.9
2022-08-07T12:45:52.461Z,25.9
2022-08-07T12:54:54.417Z,25.9
2022-08-07T13:02:26.242Z,25.9
2022-08-07T13:12:59.256Z,25.9
2022-08-07T13:20:41.889Z,25.9
2022-08-07T13:29:17.711Z,25.9
2022-08-07T13:38:16.553Z,26
2022-08-07T13:47:09.295Z,26
2022-08-07T13:57:24.026Z,26
2022-08-07T14:05:54.508Z,26.1
2022-08-07T14:14:07.613Z,26.1
2022-08-07T14:23:31.843Z,26.1
2022-08-07T19:48:42.566Z,25.8
2022-08-07T19:59:57.959Z,25.8
2022-08-07T20:08:07.301Z,25.8
2022-08-07T20:17:30.045Z,25.8
2022-08-07T20:25:12.678Z,25.8
2022-08-07T20:32:22.496Z,25.8
2022-08-07T20:40:31.940Z,25.7
2022-08-07T20:50:15.945Z,25.7
2022-08-07T20:57:47.748Z,25.6
2022-08-07T21:06:12.279Z,25.6
2022-08-07T21:13:43.552Z,25.6
2022-08-07T21:23:09.881Z,25.6
2022-08-07T21:29:55.510Z,25.6
2022-08-07T21:38:38.012Z,25.7
2022-08-07T21:47:41.201Z,25.7
2022-08-07T21:55:02.391Z,25.6
2022-08-07T22:03:01.890Z,25.7
2022-08-07T22:10:32.884Z,25.7
2022-08-07T22:18:51.132Z,25.7
2022-08-07T22:25:26.444Z,25.7
2022-08-07T22:32:58.752Z,25.7
2022-08-07T22:40:28.114Z,25.7
2022-08-07T22:49:33.742Z,25.8
2022-08-07T22:57:03.560Z,25.7
2022-08-07T23:03:20.140Z,25.8
2022-08-07T23:13:29.165Z,25.8
2022-08-07T23:21:52.613Z,25.7
2022-08-07T23:30:36.401Z,25.8
2022-08-07T23:40:15.702Z,25.8
2022-08-07T23:46:59.724Z,25.7
2022-08-07T23:55:47.400Z,25.8
